Time;durP1;ratioP1;P1;durP2;ratioP2;P2;SDS_P1;SDS_P2;PMS_P1;PMS_P2;Temp;Humidity;BMP_temperature;BMP_pressure;BME280_temperature;BME280_humidity;BME280_pressure;Samples;Min_cycle;Max_cycle;Signal;HPM_P1;HPM_P2
2023/10/02 00:05:07;;;;;;;24.30;15.80;;;16.80;99.90;;;;;;5065528;28;20144;-89
2023/10/02 00:07:37;;;;;;;22.10;15.88;;;16.80;99.90;;;;;;5070633;28;20115;-88
2023/10/02 00:10:04;;;;;;;26.20;16.70;;;16.70;99.90;;;;;;5065694;28;20028;-89
2023/10/02 00:12:31;;;;;;;25.20;16.20;;;16.70;99.90;;;;;;5058023;28;20109;-89
2023/10/02 00:14:58;;;;;;;21.83;15.52;;;16.70;99.90;;;;;;5085031;28;20056;-88
2023/10/02 00:17:24;;;;;;;26.35;16.55;;;16.60;99.90;;;;;;5067403;28;20047;-88
2023/10/02 00:19:57;;;;;;;22.00;15.65;;;16.60;99.90;;;;;;5055384;28;20399;-89
2023/10/02 00:22:38;;;;;;;25.52;15.80;;;16.60;99.90;;;;;;5075123;28;20043;-88
2023/10/02 00:25:16;;;;;;;24.58;15.48;;;16.70;99.90;;;;;;5056678;28;20041;-88
2023/10/02 00:27:51;;;;;;;24.02;15.38;;;16.70;99.90;;;;;;5076514;28;20052;-89
2023/10/02 00:30:20;;;;;;;26.52;17.00;;;16.70;99.90;;;;;;5055908;28;20112;-89
2023/10/02 00:32:47;;;;;;;23.13;16.23;;;16.70;99.90;;;;;;5066631;28;20028;-88
2023/10/02 00:35:14;;;;;;;22.42;15.88;;;16.70;99.90;;;;;;5052934;28;20036;-89
2023/10/02 00:37:44;;;;;;;22.75;15.43;;;16.70;99.90;;;;;;5051880;28;20040;-89
2023/10/02 00:40:14;;;;;;;22.67;15.23;;;16.80;99.90;;;;;;5069454;28;20048;-88
2023/10/02 00:42:39;;;;;;;23.15;15.65;;;16.80;99.90;;;;;;5070378;28;20047;-88
2023/10/02 00:45:08;;;;;;;23.05;13.95;;;16.80;99.90;;;;;;5068493;28;20446;-89
2023/10/02 00:47:42;;;;;;;22.52;14.98;;;16.80;99.90;;;;;;5074215;28;20043;-89
2023/10/02 00:50:17;;;;;;;23.88;14.85;;;16.90;99.90;;;;;;5071686;28;20226;-88
2023/10/02 00:53:03;;;;;;;22.20;14.73;;;16.90;99.90;;;;;;5062099;28;20045;-88
2023/10/02 00:55:32;;;;;;;24.45;15.15;;;16.90;99.90;;;;;;5067727;28;20117;-88
2023/10/02 00:57:59;;;;;;;27.17;15.07;;;16.90;99.90;;;;;;5067522;28;20060;-88
2023/10/02 01:00:35;;;;;;;21.92;15.68;;;16.90;99.90;;;;;;5048708;28;20040;-88
2023/10/02 01:03:14;;;;;;;21.75;15.10;;;17.00;99.90;;;;;;5066892;28;20125;-88
2023/10/02 01:05:41;;;;;;;23.65;14.93;;;17.00;99.90;;;;;;5052772;28;20036;-88
2023/10/02 01:08:25;;;;;;;26.20;15.23;;;17.00;99.90;;;;;;5050205;28;20540;-88
2023/10/02 01:10:56;;;;;;;;;;;17.00;99.90;;;;;;5062009;28;20040;-88
2023/10/02 01:13:29;;;;;;;21.42;14.18;;;16.90;99.90;;;;;;5068900;28;20297;-89
2023/10/02 01:15:56;;;;;;;24.85;14.43;;;16.90;99.90;;;;;;5059030;28;20048;-88
2023/10/02 01:18:27;;;;;;;23.55;15.60;;;16.80;99.90;;;;;;5067259;28;20518;-89
2023/10/02 01:20:59;;;;;;;20.27;14.60;;;16.90;99.90;;;;;;5101022;22;20046;-91
2023/10/02 01:23:31;;;;;;;21.92;15.25;;;16.90;99.90;;;;;;5109347;27;20513;-89
2023/10/02 01:26:00;;;;;;;21.58;14.93;;;16.90;99.90;;;;;;5092397;27;20493;-91
2023/10/02 01:28:32;;;;;;;21.85;14.15;;;16.80;99.90;;;;;;5097407;27;20365;-90
2023/10/02 01:31:31;;;;;;;23.02;15.27;;;16.70;99.90;;;;;;5088210;28;20034;-91
2023/10/02 01:33:45;;;;;;;22.83;14.85;;;16.70;99.90;;;;;;5089558;28;20047;-91
2023/10/02 01:36:14;;;;;;;22.27;14.82;;;16.70;99.90;;;;;;5071992;28;20197;-91
2023/10/02 01:38:41;;;;;;;21.27;15.02;;;16.70;99.90;;;;;;5070357;28;20203;-90
2023/10/02 01:41:08;;;;;;;23.20;15.07;;;16.70;99.90;;;;;;5073758;28;20028;-91
2023/10/02 01:43:39;;;;;;;22.05;14.45;;;16.60;99.90;;;;;;5071773;28;20039;-91
2023/10/02 01:46:06;;;;;;;22.25;14.60;;;16.70;99.90;;;;;;5076423;28;20368;-91
2023/10/02 01:48:41;;;;;;;24.42;15.20;;;16.70;99.90;;;;;;5077071;28;20435;-91
2023/10/02 01:51:20;;;;;;;25.55;15.05;;;16.70;99.90;;;;;;5089986;28;20031;-92
2023/10/02 01:53:51;;;;;;;20.90;14.65;;;16.70;99.90;;;;;;5092006;28;20508;-90
2023/10/02 01:56:19;;;;;;;22.30;15.13;;;16.70;99.90;;;;;;5074166;28;20035;-91
2023/10/02 01:58:50;;;;;;;22.33;15.32;;;16.70;99.90;;;;;;5070414;28;20039;-90
2023/10/02 02:01:17;;;;;;;23.73;15.57;;;16.70;99.90;;;;;;5065126;28;20071;-91
2023/10/02 02:03:55;;;;;;;22.23;15.90;;;16.70;99.90;;;;;;5077132;28;20043;-91
2023/10/02 02:06:23;;;;;;;22.38;16.13;;;16.70;99.90;;;;;;5074193;28;20043;-91
2023/10/02 02:08:53;;;;;;;24.67;16.63;;;16.70;99.90;;;;;;5072166;28;20032;-90
2023/10/02 02:11:23;;;;;;;24.95;16.10;;;16.70;99.90;;;;;;5076564;28;20416;-91
2023/10/02 02:13:50;;;;;;;24.55;16.15;;;16.70;99.90;;;;;;5076938;28;20032;-90
2023/10/02 02:16:25;;;;;;;23.00;16.10;;;16.60;99.90;;;;;;5073815;28;20495;-90
2023/10/02 02:18:55;;;;;;;26.88;16.58;;;16.70;99.90;;;;;;5074828;28;20046;-90
2023/10/02 02:21:24;;;;;;;24.15;15.68;;;16.70;99.90;;;;;;5065505;28;20047;-91
2023/10/02 02:24:03;;;;;;;24.42;16.00;;;16.60;99.90;;;;;;5073075;28;20067;-91
2023/10/02 02:26:31;;;;;;;25.92;17.08;;;16.70;99.90;;;;;;5089003;28;20387;-91
2023/10/02 02:28:56;;;;;;;24.33;16.52;;;16.70;99.90;;;;;;5075056;28;20035;-90
2023/10/02 02:31:31;;;;;;;23.60;15.95;;;16.60;99.90;;;;;;5075690;28;20051;-91
2023/10/02 02:34:14;;;;;;;24.75;16.27;;;16.60;99.90;;;;;;5073404;28;20489;-92
2023/10/02 02:36:41;;;;;;;26.20;17.08;;;16.60;99.90;;;;;;5073568;28;20035;-91
2023/10/02 02:39:20;;;;;;;29.48;16.88;;;16.60;99.90;;;;;;5084723;28;20036;-91
2023/10/02 02:44:49;;;;;;;22.30;15.93;;;16.60;99.90;;;;;;5096640;28;20554;-91
2023/10/02 02:47:21;;;;;;;23.77;16.17;;;16.50;99.90;;;;;;5076820;28;20399;-90
2023/10/02 02:49:52;;;;;;;26.65;17.05;;;16.60;99.90;;;;;;5091769;28;20066;-90
2023/10/02 02:52:28;;;;;;;24.92;16.88;;;16.40;99.90;;;;;;5095758;28;20516;-91
2023/10/02 02:54:59;;;;;;;25.33;16.45;;;16.50;99.90;;;;;;5080868;28;20122;-91
2023/10/02 02:57:33;;;;;;;27.00;17.67;;;16.60;99.90;;;;;;5068883;28;20035;-91
2023/10/02 03:02:52;;;;;;;26.02;17.05;;;16.50;99.90;;;;;;5111580;28;20043;-90
2023/10/02 03:05:21;;;;;;;24.60;15.73;;;16.40;99.90;;;;;;5073078;28;20036;-91
2023/10/02 03:07:54;;;;;;;25.83;16.58;;;16.30;99.90;;;;;;5080375;28;20040;-91
2023/10/02 03:10:23;;;;;;;22.95;15.98;;;16.30;99.90;;;;;;5074578;28;20027;-91
2023/10/02 03:12:51;;;;;;;25.58;16.25;;;16.20;99.90;;;;;;5071899;28;20138;-92
2023/10/02 03:15:45;;;;;;;24.50;16.45;;;16.20;99.90;;;;;;5074861;28;20036;-91
2023/10/02 03:18:22;;;;;;;24.05;16.23;;;16.20;99.90;;;;;;5096689;28;20040;-91
2023/10/02 03:20:49;;;;;;;25.73;16.80;;;16.20;99.90;;;;;;5093620;28;20092;-91
2023/10/02 03:23:18;;;;;;;25.10;15.55;;;16.20;99.90;;;;;;5075812;28;20428;-90
2023/10/02 03:25:45;;;;;;;24.45;16.58;;;16.10;99.90;;;;;;5078774;28;20040;-90
2023/10/02 03:28:32;;;;;;;24.80;15.95;;;16.10;99.90;;;;;;5075405;28;20498;-90
2023/10/02 03:30:58;;;;;;;25.45;16.55;;;16.00;99.90;;;;;;5076753;28;20050;-91
2023/10/02 03:33:31;;;;;;;25.83;16.15;;;15.90;99.90;;;;;;5071772;28;20028;-89
2023/10/02 03:35:58;;;;;;;20.85;15.57;;;15.90;99.90;;;;;;5069332;28;20058;-91
2023/10/02 03:38:32;;;;;;;24.48;16.83;;;15.90;99.90;;;;;;5093523;28;20475;-91
2023/10/02 03:41:01;;;;;;;23.98;16.80;;;15.80;99.90;;;;;;5077170;28;20028;-90
2023/10/02 03:43:43;;;;;;;25.25;16.13;;;15.70;99.90;;;;;;5075365;28;20047;-90
2023/10/02 03:46:15;;;;;;;26.50;17.38;;;15.70;99.90;;;;;;5077806;28;20035;-91
2023/10/02 03:48:41;;;;;;;30.27;17.65;;;15.60;99.90;;;;;;5079543;28;20038;-91
2023/10/02 03:51:07;;;;;;;24.65;16.98;;;15.60;99.90;;;;;;5071459;28;20038;-91
2023/10/02 03:53:35;;;;;;;26.08;17.52;;;15.60;99.90;;;;;;5109166;28;20034;-90
2023/10/02 03:56:36;;;;;;;26.58;18.40;;;15.50;99.90;;;;;;5103853;28;20261;-90
2023/10/02 03:58:49;;;;;;;24.92;18.15;;;15.50;99.90;;;;;;5112245;28;20023;-90
2023/10/02 04:01:17;;;;;;;27.20;16.88;;;15.50;99.90;;;;;;5080680;28;20115;-90
2023/10/02 04:06:53;;;;;;;25.77;17.00;;;15.50;99.90;;;;;;5000128;28;20045;-91
2023/10/02 04:11:46;;;;;;;27.40;17.02;;;15.50;99.90;;;;;;5041888;28;20042;-91
2023/10/02 04:14:18;;;;;;;27.02;17.23;;;15.50;99.90;;;;;;5076740;28;20406;-90
2023/10/02 04:19:33;;;;;;;26.13;17.05;;;15.40;99.90;;;;;;5089949;28;20043;-91
2023/10/02 04:21:58;;;;;;;26.65;17.60;;;15.40;99.90;;;;;;5064798;28;20497;-91
2023/10/02 04:24:24;;;;;;;25.60;17.55;;;15.40;99.90;;;;;;5074509;28;20093;-91
2023/10/02 04:26:54;;;;;;;25.10;17.95;;;15.30;99.90;;;;;;5074384;28;20042;-90
2023/10/02 04:32:11;;;;;;;26.35;16.98;;;15.40;99.90;;;;;;5082098;28;20132;-91
2023/10/02 04:34:37;;;;;;;27.38;17.45;;;15.40;99.90;;;;;;5095353;28;20673;-91
2023/10/02 04:37:19;;;;;;;27.60;17.75;;;15.40;99.90;;;;;;5089093;28;20043;-91
2023/10/02 04:42:57;;;;;;;27.98;17.25;;;15.40;99.90;;;;;;5087312;28;20070;-89
2023/10/02 04:45:25;;;;;;;24.05;16.52;;;15.40;99.90;;;;;;5093185;28;20040;-89
2023/10/02 04:47:55;;;;;;;26.88;16.40;;;15.50;99.90;;;;;;5067497;28;20046;-91
2023/10/02 04:52:55;;;;;;;25.10;16.40;;;15.40;99.90;;;;;;5087088;28;20046;-91
2023/10/02 04:55:31;;;;;;;26.63;16.42;;;15.50;99.90;;;;;;5074766;28;20077;-91
2023/10/02 04:58:08;;;;;;;24.90;16.65;;;15.50;99.90;;;;;;5077468;28;20032;-91
2023/10/02 05:03:31;;;;;;;;;;;15.40;99.90;;;;;;5086960;28;20505;-91
2023/10/02 05:05:58;;;;;;;26.13;16.52;;;15.40;99.90;;;;;;5091150;28;19968;-91
2023/10/02 05:08:34;;;;;;;27.50;17.15;;;15.30;99.90;;;;;;5084559;28;20044;-90
2023/10/02 05:11:07;;;;;;;24.58;16.35;;;15.30;99.90;;;;;;5082539;28;20497;-91
2023/10/02 05:14:09;;;;;;;26.65;16.92;;;15.30;99.90;;;;;;5091641;28;20039;-91
2023/10/02 05:16:29;;;;;;;27.30;16.50;;;15.20;99.90;;;;;;5088084;28;20058;-90
2023/10/02 05:18:56;;;;;;;26.23;16.58;;;15.20;99.90;;;;;;5090169;28;20039;-90
2023/10/02 05:21:35;;;;;;;24.17;16.15;;;15.20;99.90;;;;;;5075258;28;20046;-90
2023/10/02 05:24:03;;;;;;;26.17;16.30;;;15.30;99.90;;;;;;5088898;28;20114;-92
2023/10/02 05:26:39;;;;;;;25.80;16.45;;;15.10;99.90;;;;;;5091287;28;20040;-90
2023/10/02 05:29:12;;;;;;;29.63;16.55;;;15.10;99.90;;;;;;5088004;28;20074;-90
2023/10/02 05:31:41;;;;;;;28.43;15.97;;;15.10;99.90;;;;;;5075195;28;20043;-91
2023/10/02 05:34:13;;;;;;;25.33;16.83;;;15.10;99.90;;;;;;5071980;28;20047;-90
2023/10/02 05:39:34;;;;;;;26.70;17.13;;;15.10;99.90;;;;;;5092026;28;20122;-91
2023/10/02 05:42:06;;;;;;;23.52;16.15;;;15.10;99.90;;;;;;5070943;28;20036;-91
2023/10/02 05:44:35;;;;;;;31.08;17.75;;;15.00;99.90;;;;;;5068572;28;20046;-91
2023/10/02 05:47:05;;;;;;;29.20;17.00;;;15.10;99.90;;;;;;5070876;28;20122;-89
2023/10/02 05:49:31;;;;;;;29.17;17.95;;;15.10;99.90;;;;;;5068931;28;20519;-91
2023/10/02 05:52:00;;;;;;;28.77;18.02;;;15.10;99.90;;;;;;5074977;28;20047;-91
2023/10/02 05:54:29;;;;;;;27.83;17.10;;;15.10;99.90;;;;;;5075260;28;20039;-90
2023/10/02 05:57:12;;;;;;;27.15;16.90;;;15.10;99.90;;;;;;5092505;28;20469;-91
2023/10/02 05:59:45;;;;;;;29.92;17.40;;;15.10;99.90;;;;;;5087862;28;20040;-89
2023/10/02 06:02:19;;;;;;;24.95;16.42;;;15.10;99.90;;;;;;5091130;28;20478;-91
2023/10/02 06:04:49;;;;;;;26.00;15.90;;;15.10;99.90;;;;;;5067059;28;20035;-90
2023/10/02 06:07:43;;;;;;;24.98;16.17;;;15.10;99.90;;;;;;5077049;28;20418;-90
2023/10/02 06:10:27;;;;;;;24.25;15.77;;;15.10;99.90;;;;;;5090348;28;20036;-90
2023/10/02 06:13:06;;;;;;;28.63;16.25;;;15.20;99.90;;;;;;5070956;28;20035;-90
2023/10/02 06:15:46;;;;;;;28.75;16.67;;;15.20;99.90;;;;;;5089589;28;20126;-91
2023/10/02 06:18:24;;;;;;;25.63;17.35;;;15.30;99.90;;;;;;5076617;28;20051;-91
2023/10/02 06:21:00;;;;;;;27.50;16.35;;;15.20;99.90;;;;;;5086631;28;20051;-91
2023/10/02 06:23:29;;;;;;;26.40;16.65;;;15.30;99.90;;;;;;5079222;28;20089;-91
2023/10/02 06:25:58;;;;;;;26.73;17.05;;;15.40;99.90;;;;;;5077806;28;20043;-91
2023/10/02 06:28:28;;;;;;;28.23;17.05;;;15.40;99.90;;;;;;5075638;28;20402;-90
2023/10/02 06:30:57;;;;;;;25.95;16.05;;;15.50;99.90;;;;;;5075086;28;20027;-90
2023/10/02 06:33:23;;;;;;;27.23;16.98;;;15.50;99.90;;;;;;5101454;28;20116;-90
2023/10/02 06:36:00;;;;;;;24.20;16.05;;;15.50;99.90;;;;;;5081492;28;20035;-92
2023/10/02 06:38:32;;;;;;;24.67;15.73;;;15.60;99.90;;;;;;5081908;28;20035;-91
2023/10/02 06:40:59;;;;;;;22.17;15.63;;;15.70;99.90;;;;;;5081455;28;20122;-91
2023/10/02 06:43:29;;;;;;;24.35;16.02;;;15.80;99.90;;;;;;5081576;28;20721;-91
2023/10/02 06:46:13;;;;;;;23.70;15.40;;;15.80;99.90;;;;;;5068463;28;20035;-92
2023/10/02 06:48:41;;;;;;;27.60;15.80;;;15.90;99.90;;;;;;5081512;28;20043;-91
2023/10/02 06:51:10;;;;;;;23.58;15.38;;;16.00;99.90;;;;;;5080921;28;20062;-91
2023/10/02 06:53:40;;;;;;;23.67;14.77;;;16.10;99.90;;;;;;5081342;28;20039;-92
2023/10/02 06:56:07;;;;;;;24.00;15.15;;;16.10;99.90;;;;;;5081030;28;20039;-92
2023/10/02 06:58:46;;;;;;;24.92;15.38;;;16.20;99.90;;;;;;5080915;28;20123;-92
2023/10/02 07:01:18;;;;;;;25.15;14.90;;;16.20;99.90;;;;;;5067624;28;20027;-90
2023/10/02 07:03:52;;;;;;;25.40;15.82;;;16.30;99.90;;;;;;5079392;28;20059;-91
2023/10/02 07:06:19;;;;;;;25.30;15.40;;;16.30;99.90;;;;;;5097248;28;20139;-90
2023/10/02 07:08:48;;;;;;;24.90;15.93;;;16.50;99.90;;;;;;5071417;28;20085;-90
2023/10/02 07:11:14;;;;;;;22.77;15.52;;;16.50;99.90;;;;;;5076690;28;20643;-91
2023/10/02 07:13:51;;;;;;;26.98;15.27;;;16.60;99.90;;;;;;5079265;28;20105;-89
2023/10/02 07:16:22;;;;;;;22.92;14.48;;;16.70;99.90;;;;;;5091332;28;20040;-90
2023/10/02 07:18:53;;;;;;;29.55;16.50;;;16.80;99.90;;;;;;5078712;28;20039;-91
2023/10/02 07:21:19;;;;;;;25.00;15.98;;;16.90;99.90;;;;;;5106837;22;20733;-88
2023/10/02 07:23:45;;;;;;;23.75;15.05;;;16.90;99.90;;;;;;5099761;28;20070;-87
2023/10/02 07:26:19;;;;;;;24.05;15.85;;;16.90;99.90;;;;;;5120821;27;20030;-88
2023/10/02 07:28:50;;;;;;;22.98;15.02;;;17.00;99.90;;;;;;5048706;28;20037;-87
2023/10/02 07:31:20;;;;;;;22.70;15.40;;;17.00;99.90;;;;;;5063124;28;20120;-87
2023/10/02 07:33:46;;;;;;;24.33;14.88;;;17.00;99.90;;;;;;5070533;28;20417;-86
2023/10/02 07:36:16;;;;;;;25.60;15.75;;;17.10;99.90;;;;;;5071873;28;20032;-87
2023/10/02 07:38:46;;;;;;;24.05;15.57;;;17.20;99.90;;;;;;5057536;28;20091;-87
2023/10/02 07:41:16;;;;;;;23.50;14.57;;;17.20;99.90;;;;;;5064532;28;20389;-87
2023/10/02 07:43:42;;;;;;;24.13;15.73;;;17.40;99.90;;;;;;5052815;28;20036;-87
2023/10/02 07:46:18;;;;;;;23.08;15.50;;;17.50;99.90;;;;;;5054541;28;20443;-88
2023/10/02 07:48:56;;;;;;;23.17;14.15;;;17.60;99.90;;;;;;5062703;28;20082;-86
2023/10/02 07:51:30;;;;;;;28.00;15.10;;;17.80;99.90;;;;;;5052215;28;20082;-87
2023/10/02 07:53:59;;;;;;;24.63;16.17;;;17.80;99.90;;;;;;5066153;28;20056;-88
2023/10/02 07:56:27;;;;;;;22.10;14.98;;;17.80;99.90;;;;;;5067951;28;20028;-87
2023/10/02 07:58:55;;;;;;;22.77;14.93;;;17.90;99.90;;;;;;5073255;28;20559;-86
2023/10/02 08:01:27;;;;;;;24.58;14.88;;;18.00;99.90;;;;;;5052122;28;21492;-86
2023/10/02 08:03:55;;;;;;;25.92;15.82;;;18.00;99.90;;;;;;5067107;28;20044;-86
2023/10/02 08:06:32;;;;;;;26.88;16.17;;;18.10;99.90;;;;;;5063038;28;20106;-86
2023/10/02 08:11:51;;;;;;;25.70;15.45;;;18.70;99.90;;;;;;5068708;28;20036;-86
2023/10/02 08:14:41;;;;;;;26.77;15.65;;;19.00;99.90;;;;;;5050679;28;20456;-86
2023/10/02 08:17:18;;;;;;;25.50;15.10;;;19.20;99.90;;;;;;5060146;28;20028;-86
2023/10/02 08:19:54;;;;;;;24.90;15.68;;;19.50;99.90;;;;;;5066031;28;20062;-86
2023/10/02 08:22:20;;;;;;;21.13;14.98;;;19.70;99.90;;;;;;5069724;28;20055;-86
2023/10/02 08:24:46;;;;;;;26.10;15.10;;;19.80;99.90;;;;;;5062571;28;20040;-86
2023/10/02 08:27:14;;;;;;;24.90;14.98;;;19.90;99.90;;;;;;5059908;28;20097;-86
2023/10/02 08:29:41;;;;;;;23.33;14.82;;;20.00;99.90;;;;;;5063137;28;20083;-86
2023/10/02 08:32:07;;;;;;;23.13;14.88;;;20.20;99.90;;;;;;5056581;28;20040;-87
2023/10/02 08:34:32;;;;;;;24.75;15.13;;;20.50;99.90;;;;;;5040424;28;20179;-85
2023/10/02 08:37:12;;;;;;;22.73;14.93;;;20.70;99.90;;;;;;5070860;28;20434;-85
2023/10/02 08:39:39;;;;;;;22.27;14.82;;;20.90;99.90;;;;;;5066136;28;20093;-84
2023/10/02 08:42:09;;;;;;;22.27;14.75;;;21.30;99.90;;;;;;5059584;28;20127;-84
2023/10/02 08:44:41;;;;;;;21.23;15.02;;;21.30;99.90;;;;;;5059502;28;20044;-85
2023/10/02 08:47:11;;;;;;;21.48;15.45;;;21.50;99.90;;;;;;5054665;28;20040;-85
2023/10/02 08:49:38;;;;;;;23.85;14.73;;;21.80;99.90;;;;;;5058313;28;20067;-86
2023/10/02 08:52:11;;;;;;;21.77;14.93;;;22.00;99.90;;;;;;5068161;28;20151;-86
2023/10/02 08:54:41;;;;;;;23.80;15.50;;;22.20;99.90;;;;;;5044241;28;20127;-84
2023/10/02 08:57:08;;;;;;;22.80;14.77;;;22.40;99.90;;;;;;5067464;28;20048;-86
2023/10/02 08:59:38;;;;;;;22.20;14.65;;;22.50;99.90;;;;;;5064327;28;20040;-87
2023/10/02 09:02:17;;;;;;;21.80;14.48;;;22.50;99.90;;;;;;5068367;28;20086;-87
2023/10/02 09:04:57;;;;;;;25.48;15.82;;;22.50;99.90;;;;;;5062903;28;20068;-85
2023/10/02 09:07:44;;;;;;;23.08;15.05;;;22.60;99.90;;;;;;5044895;28;20040;-85
2023/10/02 09:10:17;;;;;;;21.60;15.35;;;22.70;99.90;;;;;;5061991;28;20028;-85
2023/10/02 09:12:51;;;;;;;27.08;15.63;;;22.70;99.90;;;;;;5061779;28;20103;-85
2023/10/02 09:15:30;;;;;;;23.70;15.52;;;22.80;99.90;;;;;;5066907;28;20043;-85
2023/10/02 09:17:57;;;;;;;24.17;15.63;;;23.00;99.90;;;;;;5077339;28;20066;-86
2023/10/02 09:20:38;;;;;;;21.23;15.32;;;22.90;99.90;;;;;;5067239;28;20047;-85
2023/10/02 09:23:08;;;;;;;23.60;16.08;;;22.90;99.90;;;;;;5048842;28;20039;-86
2023/10/02 09:25:37;;;;;;;24.08;15.75;;;22.40;99.90;;;;;;5061843;28;20120;-89
2023/10/02 09:28:13;;;;;;;26.50;17.52;;;22.30;99.90;;;;;;5064532;28;20107;-86
2023/10/02 09:30:41;;;;;;;25.45;16.17;;;22.10;99.90;;;;;;5068956;28;20105;-86
2023/10/02 09:33:10;;;;;;;23.08;16.05;;;22.20;99.90;;;;;;5045324;28;20043;-87
2023/10/02 09:38:04;;;;;;;26.52;16.55;;;22.50;99.90;;;;;;5062861;28;20047;-87
2023/10/02 09:43:21;;;;;;;23.17;17.25;;;22.90;99.90;;;;;;5065982;28;20493;-87
2023/10/02 09:45:52;;;;;;;29.17;18.88;;;22.90;99.90;;;;;;5069173;28;20047;-86
2023/10/02 09:51:21;;;;;;;30.08;17.88;;;22.70;99.90;;;;;;5071140;28;20048;-87
2023/10/02 09:54:08;;;;;;;25.95;17.73;;;22.80;99.90;;;;;;5050374;28;20036;-87
2023/10/02 09:56:53;;;;;;;27.63;18.90;;;22.90;99.90;;;;;;5050958;28;20422;-87
2023/10/02 09:59:22;;;;;;;31.40;19.65;;;22.90;99.90;;;;;;5072832;28;20052;-87
2023/10/02 10:02:49;;;;;;;29.95;19.92;;;22.80;99.90;;;;;;5062860;28;20401;-88
2023/10/02 10:07:46;;;;;;;26.52;17.80;;;22.50;99.90;;;;;;5066849;28;20065;-87
2023/10/02 10:10:49;;;;;;;26.40;19.25;;;22.60;99.90;;;;;;5061270;28;20049;-83
2023/10/02 10:13:25;;;;;;;27.50;18.83;;;22.50;99.90;;;;;;5061595;28;20123;-82
2023/10/02 10:16:10;;;;;;;26.10;17.67;;;22.50;99.90;;;;;;5060861;28;20701;-83
2023/10/02 10:21:52;;;;;;;24.42;17.63;;;22.10;99.90;;;;;;5066753;28;20047;-83
2023/10/02 10:25:40;;;;;;;26.85;17.77;;;22.10;99.90;;;;;;5043681;28;20033;-83
2023/10/02 10:27:41;;;;;;;27.40;18.92;;;22.60;99.90;;;;;;5048063;28;20045;-83
2023/10/02 10:30:24;;;;;;;27.23;19.00;;;23.30;99.90;;;;;;5061010;28;20525;-83
2023/10/02 10:33:26;;;;;;;25.70;18.77;;;23.80;99.90;;;;;;5069449;28;20521;-83
2023/10/02 10:35:51;;;;;;;28.13;17.65;;;23.80;99.90;;;;;;5063692;28;20051;-84
2023/10/02 10:38:26;;;;;;;24.13;17.38;;;23.50;99.90;;;;;;5061919;28;20043;-86
2023/10/02 10:40:55;;;;;;;23.83;16.90;;;23.40;99.90;;;;;;5067776;28;20387;-86
2023/10/02 10:43:26;;;;;;;27.02;17.67;;;23.50;99.90;;;;;;5043979;28;20516;-86
2023/10/02 10:45:54;;;;;;;25.70;18.17;;;23.50;99.90;;;;;;5056873;28;20032;-85
2023/10/02 10:48:23;;;;;;;26.70;17.42;;;23.40;99.90;;;;;;5050934;28;20383;-85
2023/10/02 10:50:59;;;;;;;26.15;16.48;;;23.40;99.90;;;;;;5045936;28;20032;-85
2023/10/02 10:53:32;;;;;;;22.90;16.45;;;23.20;99.90;;;;;;5043531;28;20028;-85
2023/10/02 10:56:19;;;;;;;;;;;23.20;99.90;;;;;;5065132;28;20059;-85
2023/10/02 10:59:10;;;;;;;24.33;16.88;;;23.00;99.90;;;;;;5065158;28;19924;-85
2023/10/02 11:04:51;;;;;;;26.90;16.63;;;23.00;99.90;;;;;;5068428;28;20131;-85
2023/10/02 11:07:21;;;;;;;25.00;16.95;;;22.80;99.90;;;;;;5071567;28;20028;-85
2023/10/02 11:10:14;;;;;;;22.98;16.10;;;22.90;99.90;;;;;;5076978;28;20088;-86
2023/10/02 11:12:54;;;;;;;;;;;23.20;99.90;;;;;;5090026;28;20032;-86
2023/10/02 11:15:44;;;;;;;27.58;16.90;;;23.70;99.90;;;;;;5070093;28;19923;-87
2023/10/02 11:18:23;;;;;;;26.08;16.88;;;24.10;99.90;;;;;;5071951;28;20036;-85
2023/10/02 11:21:00;;;;;;;24.17;16.00;;;24.50;99.90;;;;;;5050820;28;20033;-85
2023/10/02 11:23:38;;;;;;;26.10;17.83;;;24.70;99.90;;;;;;5055492;28;20085;-86
2023/10/02 11:26:11;;;;;;;23.58;16.17;;;24.80;99.90;;;;;;5047626;28;20092;-86
2023/10/02 11:28:38;;;;;;;22.88;15.48;;;24.70;99.90;;;;;;5050741;28;20032;-87
2023/10/02 11:31:35;;;;;;;24.35;15.63;;;24.50;99.90;;;;;;5072806;28;20036;-86
2023/10/02 11:34:06;;;;;;;22.42;14.95;;;24.40;99.90;;;;;;5067727;28;20098;-86
2023/10/02 11:36:50;;;;;;;22.90;16.00;;;24.20;99.90;;;;;;5062336;28;20115;-86
2023/10/02 11:39:19;;;;;;;21.95;16.05;;;24.10;99.90;;;;;;5074460;28;20047;-86
2023/10/02 11:41:46;;;;;;;28.45;15.85;;;24.00;99.90;;;;;;5069254;28;20086;-86
2023/10/02 11:44:13;;;;;;;23.55;14.77;;;23.90;99.90;;;;;;5063914;28;20089;-85
2023/10/02 11:46:47;;;;;;;22.17;14.57;;;23.90;99.90;;;;;;5065522;28;20086;-85
2023/10/02 11:49:13;;;;;;;20.83;13.95;;;23.90;99.90;;;;;;5067952;28;20045;-86
2023/10/02 11:51:40;;;;;;;22.13;14.75;;;23.90;99.90;;;;;;5051614;28;20388;-86
2023/10/02 11:54:09;;;;;;;22.85;14.32;;;23.90;99.90;;;;;;5089829;28;20047;-86
2023/10/02 11:56:35;;;;;;;20.33;12.95;;;23.90;99.90;;;;;;5051080;28;20486;-85
2023/10/02 11:59:02;;;;;;;19.67;13.52;;;24.10;99.90;;;;;;5071354;28;20051;-85
2023/10/02 12:01:28;;;;;;;23.83;14.60;;;24.10;99.90;;;;;;5063298;28;20395;-86
2023/10/02 12:03:57;;;;;;;21.67;15.05;;;24.10;99.90;;;;;;5080144;28;20744;-85
2023/10/02 12:06:28;;;;;;;22.45;13.57;;;24.20;99.90;;;;;;5074574;28;20486;-85
2023/10/02 12:09:01;;;;;;;19.40;13.50;;;24.40;99.90;;;;;;5067762;28;20442;-86
2023/10/02 12:11:28;;;;;;;;;;;24.50;99.90;;;;;;5070288;28;20074;-85
2023/10/02 12:13:54;;;;;;;20.20;13.60;;;24.70;99.90;;;;;;5082935;28;19947;-86
2023/10/02 12:16:24;;;;;;;21.05;13.93;;;24.80;99.90;;;;;;5080347;28;20046;-85
2023/10/02 12:18:50;;;;;;;20.08;12.73;;;25.00;99.90;;;;;;5071088;28;20040;-86
2023/10/02 12:21:17;;;;;;;18.42;14.32;;;25.20;99.90;;;;;;5061934;28;20055;-86
2023/10/02 12:23:44;;;;;;;17.65;13.60;;;25.30;99.90;;;;;;5078134;28;20383;-86
2023/10/02 12:26:16;;;;;;;19.35;13.88;;;25.60;99.90;;;;;;5076076;28;20529;-85
2023/10/02 12:28:42;;;;;;;19.17;13.40;;;26.00;99.90;;;;;;5065906;28;20036;-86
2023/10/02 12:31:10;;;;;;;20.48;14.07;;;26.50;99.90;;;;;;5076921;28;20119;-86
2023/10/02 12:33:38;;;;;;;20.08;12.77;;;26.70;99.90;;;;;;5060892;28;20049;-86
2023/10/02 12:36:28;;;;;;;19.65;12.88;;;27.10;99.90;;;;;;5080197;28;20039;-86
2023/10/02 12:38:57;;;;;;;18.33;11.77;;;27.50;99.90;;;;;;5076595;28;20048;-86
2023/10/02 12:41:24;;;;;;;17.10;11.35;;;27.90;99.90;;;;;;5074239;28;20036;-87
2023/10/02 12:43:55;;;;;;;15.15;10.43;;;28.00;99.90;;;;;;5076230;28;20032;-85
2023/10/02 12:46:23;;;;;;;16.48;10.88;;;28.10;99.90;;;;;;5084043;28;20044;-85
2023/10/02 12:48:48;;;;;;;16.00;10.07;;;28.30;99.90;;;;;;5098215;28;20040;-85
2023/10/02 12:51:15;;;;;;;13.25;9.95;;;28.50;99.90;;;;;;5078313;28;20043;-87
2023/10/02 12:53:42;;;;;;;15.18;10.60;;;28.50;99.90;;;;;;5080544;28;20064;-87
2023/10/02 12:56:15;;;;;;;16.55;11.00;;;28.90;99.90;;;;;;5057490;28;20082;-87
2023/10/02 12:58:41;;;;;;;16.85;10.77;;;29.00;99.90;;;;;;5056955;28;20040;-87
2023/10/02 13:01:11;;;;;;;18.10;11.15;;;28.80;99.90;;;;;;5070278;28;20048;-87
2023/10/02 13:03:37;;;;;;;16.45;11.27;;;28.50;99.90;;;;;;5072531;28;20110;-87
2023/10/02 13:06:03;;;;;;;19.90;13.13;;;28.00;99.90;;;;;;5059587;28;20078;-86
2023/10/02 13:08:29;;;;;;;20.17;14.07;;;27.50;99.90;;;;;;5056965;28;20065;-87
2023/10/02 13:10:56;;;;;;;18.05;12.70;;;27.00;99.90;;;;;;5069875;28;20067;-88
2023/10/02 13:13:22;;;;;;;18.90;12.18;;;26.90;99.90;;;;;;5071086;28;20505;-87
2023/10/02 13:15:48;;;;;;;17.25;12.02;;;26.70;99.90;;;;;;5070303;28;20036;-87
2023/10/02 13:18:15;;;;;;;19.77;12.00;;;26.50;99.90;;;;;;5076383;28;20077;-87
2023/10/02 13:20:43;;;;;;;16.40;11.07;;;26.30;99.90;;;;;;5085282;22;20063;-87
2023/10/02 13:23:10;;;;;;;19.13;11.88;;;26.20;99.90;;;;;;5052744;28;20143;-86
2023/10/02 13:25:41;;;;;;;18.10;12.52;;;26.00;99.90;;;;;;5056994;28;20043;-87
2023/10/02 13:28:12;;;;;;;23.92;13.25;;;25.80;99.90;;;;;;5067710;28;20072;-82
2023/10/02 13:30:41;;;;;;;15.65;11.23;;;25.80;99.90;;;;;;5069420;28;20021;-83
2023/10/02 13:33:08;;;;;;;15.80;11.75;;;26.10;99.90;;;;;;5068133;28;20040;-81
2023/10/02 13:35:44;;;;;;;18.05;12.20;;;26.20;99.90;;;;;;5077596;28;20162;-82
2023/10/02 13:38:10;;;;;;;19.15;10.95;;;26.20;99.90;;;;;;5080211;28;20087;-82
2023/10/02 13:40:38;;;;;;;15.05;11.32;;;26.20;99.90;;;;;;5077127;28;20047;-83
2023/10/02 13:43:07;;;;;;;16.50;11.50;;;26.00;99.90;;;;;;5071049;28;20107;-82
2023/10/02 13:45:35;;;;;;;16.63;11.20;;;25.90;99.90;;;;;;5075412;28;20036;-83